Nashville, Tennessee
Traffic Map
Current Weather Conditions
Nashville, Tennessee
Overcast
Overcast
70°
Feels Like: 70°
Wind Chill: 70° Ceiling: 14000
Heat Index: 70° Visibility: 10mi
Dew Point: 54° Wind: 0mph
Humidity: 57% Direction: ° ()
Pressure: 30.19in Gusts: 0mph
Raw Report DataKBNA 240253Z 00000KT 10SM OVC140 21/12 A3019 RMK AO2 SLP216 T02110122 55001
Traffic Incident Summary
Active as of:
Severity:
Category:
InformationThere was an issue retrieving the traffic information for this location. Please try a different location or try again shortly.
Advertisements